Woodlawn Park, Indiana
Current Conditions -  °F | °C
As of 9:53 PM on Wednesday 22 Oct 2014 (Local Time) from KMIE Reporting Station
Clear Clear  
Wind Chill: 37°   Ceiling: Unl
Heat Index: 41°   Visibility: 10mi
Dew Point: 38°   Wind: 6mph
Humidity: 89%   Direction: 110°ESE
Pressure: 30.27"   Gusts: NA
Location:  40.2763°N, 85.3769°W
Report Text: KMIE 230153Z 11005KT 10SM CLR 05/03 A3027 RMK AO2 SLP253 T00500033
Loading
Personal Weather Stations






























Interactive Weather Map
Tropical Storm Tracking
New forecast layout! Learn more

10-Day Weather Forecast

Advertisements
Track Severe Weather on mobile